• Join FlightAware (Why Join?)
  • Login
  • US Flag 
01:21AM EST


 

Airport Tracker/Info


-or-


 

Live Flight TrackerFlight Track Log ✈ FLG4333 ✈ 11-Jul-2013 ✈ KMEM - KMSP

Flight Track Log - Related Links

Times and Time Zones

All times are in EDT time to prevent confusion due to time zone crossing. See the FLG4333 flight status page for this flight to view local times or setup timezone preferences in your user account.

Time Position Orientation Groundspeed Altitude Reporting Facility
EDT Latitude Longitude Course Direction KTS MPH feet Rate Location/Type
10:17AM 35.0500 -89.9667 338° Northwest 171 197 800  Level KMEM
10:18AM 35.0833 -89.9833 338° Northwest 179 206 1,900 1,560 Climbing KMEM
10:18AM 35.1500 -90.0000 348° North 278 320 3,500 2,280 Climbing KMEM
10:20AM 35.2333 -90.0167 351° North 274 315 6,500 2,760 Climbing KMEM
10:21AM 35.3000 -90.0167 360° North 269 310 9,100 2,220 Climbing KMEM
10:22AM 35.3908 -90.0233 357° North 313 360 11,000 1,620 Climbing Memphis Center
10:23AM 35.4783 -90.0281 357° North 313 360 12,400 1,440 Climbing Memphis Center
10:24AM 35.5722 -90.0356 356° North 325 374 13,900 1,560 Climbing Memphis Center
10:25AM 35.6722 -90.0403 358° North 343 395 15,600 1,380 Climbing Memphis Center
10:26AM 35.7558 -90.0475 356° North 340 391 16,700 1,080 Climbing Memphis Center
10:27AM 35.8539 -90.0600 354° North 348 400 17,800 1,200 Climbing Memphis Center
10:28AM 35.9622 -90.0697 356° North 360 414 19,100 1,200 Climbing Memphis Center
10:29AM 36.0686 -90.0847 353° North 373 429 20,300 1,020 Climbing Memphis Center
10:30AM 36.1769 -90.0947 356° North 378 435 21,200 780 Climbing Memphis Center
10:31AM 36.2856 -90.1072 355° North 384 442 21,900 660 Climbing Memphis Center
10:32AM 36.3961 -90.1172 356° North 389 448 22,600 720 Climbing Memphis Center
10:33AM 36.5086 -90.1272 356° North 394 453 23,400 840 Climbing Memphis Center
10:34AM 36.6211 -90.1397 355° North 400 460 24,300 780 Climbing Memphis Center
10:35AM 36.7317 -90.1472 357° North 400 460 25,000 600 Climbing Memphis Center
10:36AM 36.9394 -90.1628 357° North 405 466 26,100 540 Climbing Kansas City Center
10:37AM 37.0778 -90.1753 356° North 411 473 26,700 480 Climbing Kansas City Center
10:39AM 37.1953 -90.1861 356° North 418 481 27,200 480 Climbing Kansas City Center
10:40AM 37.3119 -90.1975 356° North 419 482 27,700 360 Climbing Kansas City Center
10:41AM 37.4372 -90.2097 356° North 419 482 28,000 120 Climbing Kansas City Center
10:42AM 37.5556 -90.2208 356° North 425 489 28,000  Level Kansas City Center
10:43AM 37.6753 -90.2336 355° North 430 495 28,000 300 Level Kansas City Center
10:44AM 37.7917 -90.2569 351° North 427 491 28,700 780 Climbing Kansas City Center
10:45AM 37.9036 -90.2817 350° North 413 475 29,700 600 Climbing Kansas City Center
10:46AM 38.0128 -90.3047 351° North 401 461 30,000 120 Climbing Kansas City Center
10:47AM 38.1464 -90.3322 351° North 405 466 30,000  Level Kansas City Center
10:48AM 38.2583 -90.3561 350° North 406 467 30,000  Level Kansas City Center
10:49AM 38.3692 -90.3783 351° North 405 466 30,000  Level Kansas City Center
10:50AM 38.4769 -90.4011 351° North 406 467 30,000  Level Kansas City Center
10:51AM 38.6108 -90.4306 350° North 406 467 30,000  Level Kansas City Center
10:52AM 38.7253 -90.4572 350° North 414 476 30,000  Level Kansas City Center
10:53AM 38.8386 -90.4800 351° North 415 478 30,000  Level Kansas City Center
10:54AM 38.9483 -90.5203 344° North 389 448 30,000  Level Kansas City Center
10:55AM 39.0361 -90.5558 343° North 388 447 30,000  Level Kansas City Center
10:56AM 39.1608 -90.6078 342° North 391 450 30,000  Level Kansas City Center
10:57AM 39.2644 -90.6506 342° North 391 450 30,000  Level Kansas City Center
10:58AM 39.3683 -90.6936 342° North 391 450 30,000  Level Kansas City Center
10:59AM 39.4722 -90.7364 342° North 392 451 30,000  Level Kansas City Center
11:00AM 39.5769 -90.7803 342° North 394 453 30,000  Level Kansas City Center
11:01AM 39.7031 -90.8328 342° North 397 457 30,000  Level Kansas City Center
11:02AM 39.8056 -90.8767 342° North 396 456 30,000  Level Kansas City Center
11:03AM 39.9117 -90.9208 342° North 397 457 30,000  Level Kansas City Center
11:04AM 40.0161 -90.9650 342° North 394 453 30,000  Level Kansas City Center
11:05AM 40.1333 -91.0147 342° North 390 449 30,000  Level Kansas City Center
11:06AM 40.2367 -91.0586 342° North 392 451 30,000  Level Kansas City Center
11:07AM 40.3486 -91.1053 342° North 390 449 30,000  Level Kansas City Center
11:09AM 40.4517 -91.1494 342° North 389 448 30,000  Level Kansas City Center
11:10AM 40.5561 -91.1944 342° North 391 450 30,000  Level Kansas City Center
11:11AM 40.6608 -91.2392 342° North 392 451 30,000  Level Kansas City Center
11:12AM 40.7856 -91.2936 342° North 391 450 30,000  Level Chicago Center
11:13AM 40.8922 -91.3389 342° North 392 451 30,000  Level Chicago Center
11:14AM 40.9933 -91.3836 342° North 390 449 30,000  Level Chicago Center
11:15AM 41.0969 -91.4300 341° North 390 449 30,000  Level Chicago Center
11:16AM 41.2011 -91.4744 342° North 390 449 30,000  Level Chicago Center
11:17AM 41.3100 -91.5236 341° North 392 451 30,000  Level Chicago Center
11:18AM 41.4131 -91.5661 343° North 391 450 30,000  Level Chicago Center
11:19AM 41.5144 -91.6150 340° North 390 449 30,000  Level Chicago Center
11:20AM 41.6292 -91.6972 332° Northwest 393 452 30,000  Level Chicago Center
11:21AM 41.7231 -91.7647 332° Northwest 389 448 30,000  Level Chicago Center
11:22AM 41.8169 -91.8342 331° Northwest 387 445 30,000  Level Chicago Center
11:23AM 41.9119 -91.9094 329° Northwest 395 455 30,000  Level Chicago Center
11:24AM 42.0064 -91.9803 331° Northwest 391 450 30,000  Level Chicago Center
11:25AM 42.1206 -92.0664 331° Northwest 392 451 30,000  Level Chicago Center
11:26AM 42.2153 -92.1381 331° Northwest 392 451 30,000  Level Chicago Center
11:27AM 42.3103 -92.2089 331° Northwest 391 450 30,000  Level Chicago Center
11:28AM 42.4042 -92.2833 330° Northwest 392 451 30,000  Level Chicago Center
11:29AM 42.4992 -92.3553 331° Northwest 392 451 30,000  Level Chicago Center
11:30AM 42.5919 -92.4311 329° Northwest 390 449 30,000  Level Chicago Center
11:31AM 42.6986 -92.5303 326° Northwest 388 447 30,000  Level Chicago Center
11:32AM 42.7894 -92.6136 326° Northwest 393 452 30,000  Level Chicago Center
11:33AM 42.8789 -92.6972 326° Northwest 392 451 30,000  Level Chicago Center
11:35AM 43.0061 -92.8144 326° Northwest 396 456 30,000 -480 Level Minneapolis Center
11:36AM 43.0947 -92.8983 325° Northwest 393 452 28,900 -1,380 Descending Minneapolis Center
11:37AM 43.1856 -92.9828 326° Northwest 395 455 27,200 -1,800 Descending Minneapolis Center
11:38AM 43.2942 -93.0822 326° Northwest 394 453 25,200 -1,560 Descending Minneapolis Center
11:39AM 43.3908 -93.1367 338° Northwest 387 445 24,000 -960 Descending Minneapolis Center
11:40AM 43.4931 -93.1475 356° North 371 427 23,300 -1,380 Descending Minneapolis Center
11:41AM 43.6078 -93.1631 354° North 376 433 21,200 -1,980 Descending Minneapolis Center
11:42AM 43.7103 -93.1728 356° North 373 429 19,300 -1,800 Descending Minneapolis Center
11:43AM 43.8094 -93.1819 356° North 363 418 17,500 -1,800 Descending Minneapolis Center
11:44AM 43.9106 -93.1892 357° North 360 414 15,600 -1,860 Descending Minneapolis Center
11:45AM 44.0092 -93.2008 355° North 355 409 13,700 -2,040 Descending Minneapolis Center
11:46AM 44.1219 -93.2111 356° North 337 388 11,400 -1,800 Descending Minneapolis Center
11:47AM 44.2125 -93.2206 356° North 327 376 10,000 -720 Descending Minneapolis Center
11:48AM 44.3033 -93.2150 North 328 377 10,000  Level Minneapolis Center
11:49AM 44.3964 -93.2061 North 336 387 10,000  Level Minneapolis Center
11:50AM 44.4881 -93.1969 North 333 383 10,000  Level Minneapolis Center
11:51AM 44.5803 -93.1875 North 333 383 10,000  Level Minneapolis Center
11:52AM 44.6856 -93.2167 349° North 327 376 10,000 -180 Level Minneapolis Center
11:53AM 44.7658 -93.2664 336° Northwest 315 362 9,700 -960 Descending Minneapolis Center
11:54AM 44.8314 -93.3278 326° Northwest 278 320 8,100 -1,380 Descending Minneapolis Center
11:56AM 44.8694 -93.4175 301° West 269 310 6,900 -1,320 Descending Minneapolis Center
11:57AM 44.9103 -93.5042 304° West 266 306 5,400 -1,260 Descending Minneapolis Center
11:58AM 44.9769 -93.5081 358° North 241 277 4,400 -720 Descending Minneapolis Center
11:59AM 44.9872 -93.4342 79° East 203 234 4,000 -600 Descending Minneapolis Center
12:00PM 44.9558 -93.3672 124° Southeast 204 235 3,200 -960 Descending Minneapolis Center
12:01PM 44.9250 -93.2953 121° Southeast 169 194 2,100 -900 Descending Minneapolis Center
12:02PM 44.9047 -93.2478 121° Southeast 142 163 1,400 -720 Descending Minneapolis Center
12:04PM 44.8820 -93.2218 55° Northeast  Level Estimated
12:11PM 44.8820 -93.2218 55° Northeast  Level Estimated